sensor_id;sensor_type;location;lat;lon;timestamp;pressure;altitude;pressure_sealevel;temperature;humidity
19736;BME280;32064;49.310;8.646;2023-04-04T00:01:18;101503.16;;;5.99;44.61
19736;BME280;32064;49.310;8.646;2023-04-04T00:03:43;101516.19;;;6.00;44.70
19736;BME280;32064;49.310;8.646;2023-04-04T00:06:08;101511.16;;;5.94;44.20
19736;BME280;32064;49.310;8.646;2023-04-04T00:08:34;101510.38;;;5.91;45.72
19736;BME280;32064;49.310;8.646;2023-04-04T00:10:59;101507.81;;;5.89;44.55
19736;BME280;32064;49.310;8.646;2023-04-04T00:13:25;101503.44;;;5.90;44.83
19736;BME280;32064;49.310;8.646;2023-04-04T00:15:51;101507.00;;;5.87;45.94
19736;BME280;32064;49.310;8.646;2023-04-04T00:18:17;101501.91;;;5.84;45.37
19736;BME280;32064;49.310;8.646;2023-04-04T00:20:42;101505.38;;;5.83;45.33
19736;BME280;32064;49.310;8.646;2023-04-04T00:23:08;101505.34;;;5.84;44.79
19736;BME280;32064;49.310;8.646;2023-04-04T00:25:38;101494.25;;;5.78;45.29
19736;BME280;32064;49.310;8.646;2023-04-04T00:28:03;101501.06;;;5.82;45.51
19736;BME280;32064;49.310;8.646;2023-04-04T00:30:29;101498.56;;;5.79;45.87
19736;BME280;32064;49.310;8.646;2023-04-04T00:32:56;101486.38;;;5.79;44.06
19736;BME280;32064;49.310;8.646;2023-04-04T00:35:22;101488.97;;;5.79;46.24
19736;BME280;32064;49.310;8.646;2023-04-04T00:37:47;101489.03;;;5.78;46.30
19736;BME280;32064;49.310;8.646;2023-04-04T00:40:13;101491.88;;;5.70;44.33
19736;BME280;32064;49.310;8.646;2023-04-04T00:42:38;101488.38;;;5.71;44.91
19736;BME280;32064;49.310;8.646;2023-04-04T00:45:07;101484.91;;;5.71;44.32
19736;BME280;32064;49.310;8.646;2023-04-04T00:47:33;101488.56;;;5.65;45.75
19736;BME280;32064;49.310;8.646;2023-04-04T00:49:59;101480.72;;;5.65;45.50
19736;BME280;32064;49.310;8.646;2023-04-04T00:52:25;101479.81;;;5.66;45.60
19736;BME280;32064;49.310;8.646;2023-04-04T00:54:51;101483.31;;;5.67;44.83
19736;BME280;32064;49.310;8.646;2023-04-04T00:57:17;101485.09;;;5.65;44.95
19736;BME280;32064;49.310;8.646;2023-04-04T00:59:43;101488.38;;;5.71;46.40
19736;BME280;32064;49.310;8.646;2023-04-04T01:02:08;101485.34;;;5.57;45.75
19736;BME280;32064;49.310;8.646;2023-04-04T01:04:34;101490.38;;;5.63;46.43
19736;BME280;32064;49.310;8.646;2023-04-04T01:07:01;101486.03;;;5.63;45.59
19736;BME280;32064;49.310;8.646;2023-04-04T01:09:27;101493.78;;;5.65;45.50
19736;BME280;32064;49.310;8.646;2023-04-04T01:11:54;101485.34;;;5.57;46.62
19736;BME280;32064;49.310;8.646;2023-04-04T01:14:20;101482.59;;;5.61;46.05
19736;BME280;32064;49.310;8.646;2023-04-04T01:16:47;101491.38;;;5.59;45.19
19736;BME280;32064;49.310;8.646;2023-04-04T01:19:18;101491.47;;;5.56;45.80
19736;BME280;32064;49.310;8.646;2023-04-04T01:21:46;101498.69;;;5.48;44.82
19736;BME280;32064;49.310;8.646;2023-04-04T01:24:15;101496.06;;;5.48;44.70
19736;BME280;32064;49.310;8.646;2023-04-04T01:26:40;101496.06;;;5.48;46.81
19736;BME280;32064;49.310;8.646;2023-04-04T01:29:06;101493.47;;;5.48;45.35
19736;BME280;32064;49.310;8.646;2023-04-04T01:31:41;101483.94;;;5.47;45.58
19736;BME280;32064;49.310;8.646;2023-04-04T01:34:19;101486.69;;;5.42;45.72
19736;BME280;32064;49.310;8.646;2023-04-04T01:37:02;101481.47;;;5.42;45.67
19736;BME280;32064;49.310;8.646;2023-04-04T01:39:40;101483.22;;;5.42;45.37
19736;BME280;32064;49.310;8.646;2023-04-04T01:42:08;101485.03;;;5.39;46.48
19736;BME280;32064;49.310;8.646;2023-04-04T01:44:34;101480.63;;;5.42;45.67
19736;BME280;32064;49.310;8.646;2023-04-04T01:47:00;101484.94;;;5.43;46.57
19736;BME280;32064;49.310;8.646;2023-04-04T01:49:27;101481.47;;;5.42;46.73
19736;BME280;32064;49.310;8.646;2023-04-04T01:51:52;101486.72;;;5.40;46.75
19736;BME280;32064;49.310;8.646;2023-04-04T01:54:19;101484.19;;;5.39;46.25
19736;BME280;32064;49.310;8.646;2023-04-04T01:56:44;101479.81;;;5.39;46.53
19736;BME280;32064;49.310;8.646;2023-04-04T01:59:12;101477.25;;;5.38;46.62
19736;BME280;32064;49.310;8.646;2023-04-04T02:01:38;101476.47;;;5.34;45.74
19736;BME280;32064;49.310;8.646;2023-04-04T02:04:04;101473.97;;;5.31;45.69
19736;BME280;32064;49.310;8.646;2023-04-04T02:06:30;101471.34;;;5.31;45.64
19736;BME280;32064;49.310;8.646;2023-04-04T02:08:55;101474.81;;;5.32;46.69
19736;BME280;32064;49.310;8.646;2023-04-04T02:11:21;101471.41;;;5.30;44.98
19736;BME280;32064;49.310;8.646;2023-04-04T02:13:48;101465.47;;;5.25;46.63
19736;BME280;32064;49.310;8.646;2023-04-04T02:16:13;101467.25;;;5.24;46.98
19736;BME280;32064;49.310;8.646;2023-04-04T02:18:40;101473.25;;;5.26;46.16
19736;BME280;32064;49.310;8.646;2023-04-04T02:21:05;101472.69;;;5.16;46.28
19736;BME280;32064;49.310;8.646;2023-04-04T02:23:31;101476.97;;;5.19;46.78
19736;BME280;32064;49.310;8.646;2023-04-04T02:25:56;101469.94;;;5.21;45.80
19736;BME280;32064;49.310;8.646;2023-04-04T02:28:21;101476.00;;;5.22;46.37
19736;BME280;32064;49.310;8.646;2023-04-04T02:30:47;101470.06;;;5.16;46.20
19736;BME280;32064;49.310;8.646;2023-04-04T02:33:12;101468.22;;;5.20;46.41
19736;BME280;32064;49.310;8.646;2023-04-04T02:35:38;101471.00;;;5.15;47.26
19736;BME280;32064;49.310;8.646;2023-04-04T02:38:03;101472.66;;;5.18;45.81
19736;BME280;32064;49.310;8.646;2023-04-04T02:40:28;101471.03;;;5.14;46.12
19736;BME280;32064;49.310;8.646;2023-04-04T02:42:54;101464.00;;;5.16;46.08
19736;BME280;32064;49.310;8.646;2023-04-04T02:45:20;101470.09;;;5.15;45.95
19736;BME280;32064;49.310;8.646;2023-04-04T02:47:49;101464.19;;;5.10;46.30
19736;BME280;32064;49.310;8.646;2023-04-04T02:50:14;101463.47;;;5.05;46.23
19736;BME280;32064;49.310;8.646;2023-04-04T02:52:40;101461.69;;;5.07;46.39
19736;BME280;32064;49.310;8.646;2023-04-04T02:55:06;101461.69;;;5.07;45.99
19736;BME280;32064;49.310;8.646;2023-04-04T02:57:32;101472.16;;;5.05;45.86
19736;BME280;32064;49.310;8.646;2023-04-04T02:59:58;101466.03;;;5.06;47.42
19736;BME280;32064;49.310;8.646;2023-04-04T03:02:24;101469.50;;;5.07;46.98
19736;BME280;32064;49.310;8.646;2023-04-04T03:04:50;101465.16;;;5.07;46.07
19736;BME280;32064;49.310;8.646;2023-04-04T03:07:16;101469.53;;;5.05;47.41
19736;BME280;32064;49.310;8.646;2023-04-04T03:09:41;101463.47;;;5.05;47.04
19736;BME280;32064;49.310;8.646;2023-04-04T03:12:09;101458.34;;;5.02;46.02
19736;BME280;32064;49.310;8.646;2023-04-04T03:14:35;101463.59;;;5.00;47.68
19736;BME280;32064;49.310;8.646;2023-04-04T03:17:01;101458.44;;;4.99;47.33
19736;BME280;32064;49.310;8.646;2023-04-04T03:19:28;101467.16;;;4.98;47.77
19736;BME280;32064;49.310;8.646;2023-04-04T03:21:53;101466.28;;;4.99;47.35
19736;BME280;32064;49.310;8.646;2023-04-04T03:24:19;101465.66;;;4.90;47.04
19736;BME280;32064;49.310;8.646;2023-04-04T03:26:44;101462.19;;;4.90;47.25
19736;BME280;32064;49.310;8.646;2023-04-04T03:29:10;101467.44;;;4.88;47.15
19736;BME280;32064;49.310;8.646;2023-04-04T03:31:36;101463.13;;;4.87;46.81
19736;BME280;32064;49.310;8.646;2023-04-04T03:34:01;101460.53;;;4.87;47.71
19736;BME280;32064;49.310;8.646;2023-04-04T03:36:29;101464.00;;;4.86;46.36
19736;BME280;32064;49.310;8.646;2023-04-04T03:38:54;101466.72;;;4.83;46.79
19736;BME280;32064;49.310;8.646;2023-04-04T03:41:20;101459.72;;;4.84;46.70
19736;BME280;32064;49.310;8.646;2023-04-04T03:43:45;101460.63;;;4.84;46.64
19736;BME280;32064;49.310;8.646;2023-04-04T03:46:12;101458.00;;;4.84;47.71
19736;BME280;32064;49.310;8.646;2023-04-04T03:48:38;101468.53;;;4.81;47.14
19736;BME280;32064;49.310;8.646;2023-04-04T03:51:03;101459.91;;;4.78;48.20
19736;BME280;32064;49.310;8.646;2023-04-04T03:53:29;101468.66;;;4.77;47.76
19736;BME280;32064;49.310;8.646;2023-04-04T03:55:55;101457.41;;;4.75;47.24
19736;BME280;32064;49.310;8.646;2023-04-04T03:58:21;101453.19;;;4.70;47.90
19736;BME280;32064;49.310;8.646;2023-04-04T04:00:47;101460.19;;;4.68;48.46
19736;BME280;32064;49.310;8.646;2023-04-04T04:03:13;101466.16;;;4.72;46.84
19736;BME280;32064;49.310;8.646;2023-04-04T04:05:38;101469.72;;;4.69;48.43
19736;BME280;32064;49.310;8.646;2023-04-04T04:08:04;101470.63;;;4.68;48.01
19736;BME280;32064;49.310;8.646;2023-04-04T04:10:29;101467.06;;;4.71;47.40
19736;BME280;32064;49.310;8.646;2023-04-04T04:12:55;101464.63;;;4.65;47.41
19736;BME280;32064;49.310;8.646;2023-04-04T04:15:21;101462.03;;;4.65;47.34
19736;BME280;32064;49.310;8.646;2023-04-04T04:17:46;101468.19;;;4.62;48.08
19736;BME280;32064;49.310;8.646;2023-04-04T04:20:12;101469.22;;;4.57;48.00
19736;BME280;32064;49.310;8.646;2023-04-04T04:22:38;101466.53;;;4.58;47.82
19736;BME280;32064;49.310;8.646;2023-04-04T04:25:04;101464.75;;;4.60;47.98
19736;BME280;32064;49.310;8.646;2023-04-04T04:27:29;101457.00;;;4.59;47.67
19736;BME280;32064;49.310;8.646;2023-04-04T04:29:55;101474.38;;;4.58;47.72
19736;BME280;32064;49.310;8.646;2023-04-04T04:32:21;101459.72;;;4.54;47.90
19736;BME280;32064;49.310;8.646;2023-04-04T04:34:46;101467.44;;;4.57;47.22
19736;BME280;32064;49.310;8.646;2023-04-04T04:37:12;101465.09;;;4.48;47.42
19736;BME280;32064;49.310;8.646;2023-04-04T04:39:37;101462.50;;;4.48;47.68
19736;BME280;32064;49.310;8.646;2023-04-04T04:42:03;101468.50;;;4.50;48.64
19736;BME280;32064;49.310;8.646;2023-04-04T04:44:28;101471.09;;;4.50;47.62
19736;BME280;32064;49.310;8.646;2023-04-04T04:46:53;101476.38;;;4.48;47.60
19736;BME280;32064;49.310;8.646;2023-04-04T04:49:19;101471.25;;;4.45;47.29
19736;BME280;32064;49.310;8.646;2023-04-04T04:51:44;101477.31;;;4.46;47.26
19736;BME280;32064;49.310;8.646;2023-04-04T04:54:10;101473.88;;;4.45;47.97
19736;BME280;32064;49.310;8.646;2023-04-04T04:56:39;101469.53;;;4.44;48.55
19736;BME280;32064;49.310;8.646;2023-04-04T04:59:04;101474.69;;;4.47;47.94
19736;BME280;32064;49.310;8.646;2023-04-04T05:01:31;101469.53;;;4.44;47.54
19736;BME280;32064;49.310;8.646;2023-04-04T05:03:57;101477.31;;;4.46;47.87
19736;BME280;32064;49.310;8.646;2023-04-04T05:06:23;101485.22;;;4.43;47.44
19736;BME280;32064;49.310;8.646;2023-04-04T05:08:48;101481.78;;;4.41;48.25
19736;BME280;32064;49.310;8.646;2023-04-04T05:11:13;101485.16;;;4.44;47.38
19736;BME280;32064;49.310;8.646;2023-04-04T05:13:39;101480.94;;;4.40;48.24
19736;BME280;32064;49.310;8.646;2023-04-04T05:16:05;101478.41;;;4.39;47.52
19736;BME280;32064;49.310;8.646;2023-04-04T05:18:30;101483.47;;;4.43;48.43
19736;BME280;32064;49.310;8.646;2023-04-04T05:20:56;101484.38;;;4.42;48.04
19736;BME280;32064;49.310;8.646;2023-04-04T05:23:22;101484.19;;;4.48;47.74
19736;BME280;32064;49.310;8.646;2023-04-04T05:25:48;101487.72;;;4.46;48.14
19736;BME280;32064;49.310;8.646;2023-04-04T05:28:16;101482.53;;;4.46;48.63
19736;BME280;32064;49.310;8.646;2023-04-04T05:30:41;101490.31;;;4.47;48.35
19736;BME280;32064;49.310;8.646;2023-04-04T05:33:06;101480.78;;;4.46;48.28
19736;BME280;32064;49.310;8.646;2023-04-04T05:35:32;101485.88;;;4.49;48.64
19736;BME280;32064;49.310;8.646;2023-04-04T05:37:57;101486.81;;;4.48;47.48
19736;BME280;32064;49.310;8.646;2023-04-04T05:40:23;101495.28;;;4.55;47.55
19736;BME280;32064;49.310;8.646;2023-04-04T05:42:55;101493.59;;;4.54;47.50
19736;BME280;32064;49.310;8.646;2023-04-04T05:45:21;101495.19;;;4.60;47.46
19736;BME280;32064;49.310;8.646;2023-04-04T05:47:46;101494.34;;;4.59;48.72
19736;BME280;32064;49.310;8.646;2023-04-04T05:50:11;101487.44;;;4.57;47.23
19736;BME280;32064;49.310;8.646;2023-04-04T05:52:37;101491.66;;;4.61;49.09
19736;BME280;32064;49.310;8.646;2023-04-04T05:55:02;101494.25;;;4.62;47.38
19736;BME280;32064;49.310;8.646;2023-04-04T05:57:28;101500.13;;;4.69;47.86
19736;BME280;32064;49.310;8.646;2023-04-04T05:59:53;101503.44;;;4.76;47.13
19736;BME280;32064;49.310;8.646;2023-04-04T06:02:19;101493.94;;;4.73;47.97
19736;BME280;32064;49.310;8.646;2023-04-04T06:04:44;101497.31;;;4.77;48.03
19736;BME280;32064;49.310;8.646;2023-04-04T06:59:19;101512.00;;;18.72;30.03
19736;BME280;32064;49.310;8.646;2023-04-04T07:01:44;101512.09;;;18.92;29.00
19736;BME280;32064;49.310;8.646;2023-04-04T07:04:10;101520.34;;;19.19;29.02
19736;BME280;32064;49.310;8.646;2023-04-04T07:06:35;101513.28;;;19.78;27.89
19736;BME280;32064;49.310;8.646;2023-04-04T07:09:01;101520.28;;;20.37;28.06
19736;BME280;32064;49.310;8.646;2023-04-04T07:11:28;101522.44;;;21.18;27.52
19736;BME280;32064;49.310;8.646;2023-04-04T07:13:54;101514.41;;;21.64;27.00
19736;BME280;32064;49.310;8.646;2023-04-04T07:16:19;101513.50;;;22.09;26.62
19736;BME280;32064;49.310;8.646;2023-04-04T07:18:45;101514.47;;;22.08;26.74
19736;BME280;32064;49.310;8.646;2023-04-04T07:21:10;101524.97;;;22.19;25.88
19736;BME280;32064;49.310;8.646;2023-04-04T07:23:36;101523.19;;;22.28;25.86
19736;BME280;32064;49.310;8.646;2023-04-04T07:26:01;101514.50;;;22.52;25.91
19736;BME280;32064;49.310;8.646;2023-04-04T07:28:26;101513.66;;;22.51;24.78
19736;BME280;32064;49.310;8.646;2023-04-04T07:30:52;101523.63;;;22.41;25.20
19736;BME280;32064;49.310;8.646;2023-04-04T07:33:17;101512.28;;;23.07;24.88
19736;BME280;32064;49.310;8.646;2023-04-04T07:35:43;101511.09;;;23.02;24.30
19736;BME280;32064;49.310;8.646;2023-04-04T07:38:08;101519.13;;;22.68;25.42
19736;BME280;32064;49.310;8.646;2023-04-04T07:40:34;101511.13;;;23.18;25.13
19736;BME280;32064;49.310;8.646;2023-04-04T07:42:59;101505.78;;;23.26;24.96
19736;BME280;32064;49.310;8.646;2023-04-04T07:45:25;101501.75;;;23.22;24.04
19736;BME280;32064;49.310;8.646;2023-04-04T07:47:51;101497.97;;;23.58;23.82
19736;BME280;32064;49.310;8.646;2023-04-04T07:50:17;101496.13;;;23.66;23.50
19736;BME280;32064;49.310;8.646;2023-04-04T07:52:48;101495.63;;;23.63;23.17
19736;BME280;32064;49.310;8.646;2023-04-04T07:55:16;101502.75;;;23.88;23.42
19736;BME280;32064;49.310;8.646;2023-04-04T07:57:42;101497.72;;;24.02;22.67
19736;BME280;32064;49.310;8.646;2023-04-04T08:00:09;101498.53;;;23.78;23.36
19736;BME280;32064;49.310;8.646;2023-04-04T08:02:35;101500.34;;;23.69;23.85
19736;BME280;32064;49.310;8.646;2023-04-04T08:05:01;101505.81;;;23.35;24.02
19736;BME280;32064;49.310;8.646;2023-04-04T08:07:27;101518.78;;;23.39;23.67
19736;BME280;32064;49.310;8.646;2023-04-04T08:09:52;101508.78;;;23.15;23.81
19736;BME280;32064;49.310;8.646;2023-04-04T08:12:18;101506.03;;;23.41;23.20
19736;BME280;32064;49.310;8.646;2023-04-04T08:14:43;101515.28;;;22.78;23.98
19736;BME280;32064;49.310;8.646;2023-04-04T08:17:09;101509.94;;;23.13;23.47
19736;BME280;32064;49.310;8.646;2023-04-04T08:19:34;101506.03;;;23.58;24.28
19736;BME280;32064;49.310;8.646;2023-04-04T08:22:00;101520.72;;;24.04;22.93
19736;BME280;32064;49.310;8.646;2023-04-04T08:24:25;101499.06;;;23.81;23.34
19736;BME280;32064;49.310;8.646;2023-04-04T08:26:51;101505.78;;;24.10;23.06
19736;BME280;32064;49.310;8.646;2023-04-04T08:29:16;101514.69;;;24.18;22.41
19736;BME280;32064;49.310;8.646;2023-04-04T08:31:42;101508.63;;;24.25;22.12
19736;BME280;32064;49.310;8.646;2023-04-04T08:34:07;101505.94;;;24.16;21.95
19736;BME280;32064;49.310;8.646;2023-04-04T08:36:36;101517.38;;;24.18;22.50
19736;BME280;32064;49.310;8.646;2023-04-04T08:39:02;101510.59;;;24.63;21.51
19736;BME280;32064;49.310;8.646;2023-04-04T08:41:28;101514.41;;;24.85;22.07
19736;BME280;32064;49.310;8.646;2023-04-04T08:43:55;101523.03;;;24.64;22.18
19736;BME280;32064;49.310;8.646;2023-04-04T08:46:22;101504.81;;;24.83;22.14
19736;BME280;32064;49.310;8.646;2023-04-04T08:48:49;101511.09;;;24.42;22.69
19736;BME280;32064;49.310;8.646;2023-04-04T08:51:21;101507.47;;;21.89;23.98
19736;BME280;32064;49.310;8.646;2023-04-04T08:53:47;101501.13;;;22.16;23.78
19736;BME280;32064;49.310;8.646;2023-04-04T08:56:13;101497.44;;;23.38;23.09
19736;BME280;32064;49.310;8.646;2023-04-04T08:58:38;101495.81;;;23.69;22.96
19736;BME280;32064;49.310;8.646;2023-04-04T09:01:05;101502.75;;;23.96;21.85
19736;BME280;32064;49.310;8.646;2023-04-04T09:03:32;101507.16;;;23.30;22.11
19736;BME280;32064;49.310;8.646;2023-04-04T09:06:00;101496.69;;;24.11;21.53
19736;BME280;32064;49.310;8.646;2023-04-04T09:08:27;101502.84;;;24.69;21.85
19736;BME280;32064;49.310;8.646;2023-04-04T09:10:52;101495.59;;;24.69;21.92
19736;BME280;32064;49.310;8.646;2023-04-04T09:13:18;101509.44;;;24.41;22.30
19736;BME280;32064;49.310;8.646;2023-04-04T09:15:53;101494.34;;;24.00;20.04
19736;BME280;32064;49.310;8.646;2023-04-04T09:18:21;101494.94;;;25.06;21.78
19736;BME280;32064;49.310;8.646;2023-04-04T09:20:47;101489.34;;;25.16;21.82
19736;BME280;32064;49.310;8.646;2023-04-04T09:23:15;101498.06;;;25.26;21.16
19736;BME280;32064;49.310;8.646;2023-04-04T09:25:54;101488.44;;;25.32;21.36
19736;BME280;32064;49.310;8.646;2023-04-04T09:28:21;101491.13;;;25.32;21.49
19736;BME280;32064;49.310;8.646;2023-04-04T09:30:48;101478.13;;;23.34;22.67
19736;BME280;32064;49.310;8.646;2023-04-04T09:33:14;101484.56;;;20.29;23.52
19736;BME280;32064;49.310;8.646;2023-04-04T09:35:45;101485.81;;;18.56;25.17
19736;BME280;32064;49.310;8.646;2023-04-04T09:38:13;101479.41;;;18.99;25.08
19736;BME280;32064;49.310;8.646;2023-04-04T09:40:40;101484.44;;;19.52;25.02
19736;BME280;32064;49.310;8.646;2023-04-04T09:43:07;101478.00;;;21.25;23.85
19736;BME280;32064;49.310;8.646;2023-04-04T09:45:34;101484.03;;;22.35;22.90
19736;BME280;32064;49.310;8.646;2023-04-04T09:48:01;101486.44;;;23.06;22.40
19736;BME280;32064;49.310;8.646;2023-04-04T09:50:27;101488.97;;;24.08;21.88
19736;BME280;32064;49.310;8.646;2023-04-04T09:52:58;101488.06;;;23.42;21.92
19736;BME280;32064;49.310;8.646;2023-04-04T09:55:36;101485.44;;;23.99;21.48
19736;BME280;32064;49.310;8.646;2023-04-04T09:58:13;101490.25;;;25.00;22.04
19736;BME280;32064;49.310;8.646;2023-04-04T10:00:41;101485.81;;;25.47;21.02
19736;BME280;32064;49.310;8.646;2023-04-04T10:03:10;101490.72;;;25.66;21.31
19736;BME280;32064;49.310;8.646;2023-04-04T10:05:35;101497.22;;;26.03;21.33
19736;BME280;32064;49.310;8.646;2023-04-04T10:08:15;101485.50;;;25.42;19.77
19736;BME280;32064;49.310;8.646;2023-04-04T10:11:05;101485.19;;;25.91;20.11
19736;BME280;32064;49.310;8.646;2023-04-04T10:13:32;101484.41;;;25.59;21.39
19736;BME280;32064;49.310;8.646;2023-04-04T10:16:01;101482.34;;;26.07;20.96
19736;BME280;32064;49.310;8.646;2023-04-04T10:18:32;101499.06;;;26.03;19.62
19736;BME280;32064;49.310;8.646;2023-04-04T10:21:02;101480.94;;;26.11;20.82
19736;BME280;32064;49.310;8.646;2023-04-04T10:23:28;101476.00;;;26.00;20.79
19736;BME280;32064;49.310;8.646;2023-04-04T10:25:55;101477.16;;;26.20;20.63
19736;BME280;32064;49.310;8.646;2023-04-04T10:28:21;101486.09;;;25.83;20.57
19736;BME280;32064;49.310;8.646;2023-04-04T10:36:39;101471.16;;;27.14;19.86
19736;BME280;32064;49.310;8.646;2023-04-04T10:39:24;101468.97;;;27.18;20.06
19736;BME280;32064;49.310;8.646;2023-04-04T10:41:52;101482.53;;;26.58;20.04
19736;BME280;32064;49.310;8.646;2023-04-04T10:46:53;101484.56;;;26.56;19.75
19736;BME280;32064;49.310;8.646;2023-04-04T10:49:20;101468.72;;;26.83;19.54
19736;BME280;32064;49.310;8.646;2023-04-04T10:51:47;101472.34;;;26.90;19.93
19736;BME280;32064;49.310;8.646;2023-04-04T10:54:13;101467.44;;;26.64;20.31
19736;BME280;32064;49.310;8.646;2023-04-04T10:56:39;101467.06;;;26.67;20.08
19736;BME280;32064;49.310;8.646;2023-04-04T10:59:13;101458.94;;;26.37;19.02
19736;BME280;32064;49.310;8.646;2023-04-04T11:02:04;101454.81;;;26.27;19.52
19736;BME280;32064;49.310;8.646;2023-04-04T11:04:37;101457.91;;;25.86;19.08
19736;BME280;32064;49.310;8.646;2023-04-04T11:07:16;101457.03;;;26.08;19.21
19736;BME280;32064;49.310;8.646;2023-04-04T11:10:29;101449.28;;;25.90;19.22
19736;BME280;32064;49.310;8.646;2023-04-04T11:12:55;101435.44;;;25.24;19.98
19736;BME280;32064;49.310;8.646;2023-04-04T11:15:23;101426.91;;;24.81;20.31
19736;BME280;32064;49.310;8.646;2023-04-04T11:20:22;101432.81;;;25.85;19.91
19736;BME280;32064;49.310;8.646;2023-04-04T11:23:13;101431.53;;;25.27;19.12
19736;BME280;32064;49.310;8.646;2023-04-04T11:25:55;101435.50;;;25.62;20.00
19736;BME280;32064;49.310;8.646;2023-04-04T11:34:06;101421.88;;;23.16;20.39
19736;BME280;32064;49.310;8.646;2023-04-04T11:44:25;101414.13;;;20.67;21.98
19736;BME280;32064;49.310;8.646;2023-04-04T11:47:08;101415.63;;;20.32;22.60
19736;BME280;32064;49.310;8.646;2023-04-04T11:49:35;101406.81;;;20.22;23.25
19736;BME280;32064;49.310;8.646;2023-04-04T11:52:05;101397.41;;;20.08;23.27
19736;BME280;32064;49.310;8.646;2023-04-04T11:54:31;101395.75;;;19.10;24.48
19736;BME280;32064;49.310;8.646;2023-04-04T11:56:57;101389.25;;;18.83;23.83
19736;BME280;32064;49.310;8.646;2023-04-04T11:59:22;101393.09;;;19.00;23.71
19736;BME280;32064;49.310;8.646;2023-04-04T12:01:48;101393.53;;;19.05;24.20
19736;BME280;32064;49.310;8.646;2023-04-04T12:04:17;101388.03;;;19.07;24.13
19736;BME280;32064;49.310;8.646;2023-04-04T12:06:47;101382.44;;;18.60;23.73
19736;BME280;32064;49.310;8.646;2023-04-04T12:09:14;101388.44;;;18.93;24.80
19736;BME280;32064;49.310;8.646;2023-04-04T12:11:42;101376.75;;;18.74;24.19
19736;BME280;32064;49.310;8.646;2023-04-04T12:14:16;101374.25;;;18.82;25.24
19736;BME280;32064;49.310;8.646;2023-04-04T12:16:43;101378.47;;;18.95;25.26
19736;BME280;32064;49.310;8.646;2023-04-04T12:19:09;101371.19;;;18.56;24.78
19736;BME280;32064;49.310;8.646;2023-04-04T12:21:35;101372.91;;;18.57;24.54
19736;BME280;32064;49.310;8.646;2023-04-04T12:24:00;101373.72;;;18.58;25.18
19736;BME280;32064;49.310;8.646;2023-04-04T12:26:26;101367.22;;;18.41;24.44
19736;BME280;32064;49.310;8.646;2023-04-04T12:28:59;101367.38;;;18.49;25.80
19736;BME280;32064;49.310;8.646;2023-04-04T12:31:25;101367.94;;;17.91;24.72
19736;BME280;32064;49.310;8.646;2023-04-04T12:33:52;101369.72;;;17.81;25.00
19736;BME280;32064;49.310;8.646;2023-04-04T12:36:17;101361.44;;;18.05;26.45
19736;BME280;32064;49.310;8.646;2023-04-04T12:39:08;101364.47;;;18.22;25.26
19736;BME280;32064;49.310;8.646;2023-04-04T12:41:46;101357.19;;;18.24;25.99
19736;BME280;32064;49.310;8.646;2023-04-04T12:44:28;101359.28;;;17.57;26.53
19736;BME280;32064;49.310;8.646;2023-04-04T12:46:59;101353.47;;;17.10;26.22
19736;BME280;32064;49.310;8.646;2023-04-04T12:49:29;101337.03;;;17.37;26.93
19736;BME280;32064;49.310;8.646;2023-04-04T12:51:55;101348.31;;;17.30;26.34
19736;BME280;32064;49.310;8.646;2023-04-04T12:54:29;101351.03;;;17.18;25.97
19736;BME280;32064;49.310;8.646;2023-04-04T12:56:58;101330.75;;;17.06;26.38
19736;BME280;32064;49.310;8.646;2023-04-04T12:59:35;101342.59;;;17.34;27.08
19736;BME280;32064;49.310;8.646;2023-04-04T13:02:02;101334.66;;;17.55;26.38
19736;BME280;32064;49.310;8.646;2023-04-04T13:04:28;101338.22;;;17.44;26.07
19736;BME280;32064;49.310;8.646;2023-04-04T13:06:53;101341.06;;;17.53;27.72
19736;BME280;32064;49.310;8.646;2023-04-04T13:09:20;101332.22;;;17.52;26.58
19736;BME280;32064;49.310;8.646;2023-04-04T13:11:59;101327.69;;;17.43;27.40
19736;BME280;32064;49.310;8.646;2023-04-04T13:14:27;101318.69;;;17.02;27.58
19736;BME280;32064;49.310;8.646;2023-04-04T13:17:06;101319.75;;;17.11;27.63
19736;BME280;32064;49.310;8.646;2023-04-04T13:19:34;101325.44;;;17.06;27.57
19736;BME280;32064;49.310;8.646;2023-04-04T13:22:01;101315.06;;;17.03;27.78
19736;BME280;32064;49.310;8.646;2023-04-04T13:24:27;101309.25;;;16.98;27.05
19736;BME280;32064;49.310;8.646;2023-04-04T13:26:52;101319.59;;;16.69;26.98
19736;BME280;32064;49.310;8.646;2023-04-04T13:29:18;101299.78;;;16.61;27.49
19736;BME280;32064;49.310;8.646;2023-04-04T13:31:43;101310.78;;;16.79;27.10
19736;BME280;32064;49.310;8.646;2023-04-04T13:34:09;101300.63;;;16.73;27.67
19736;BME280;32064;49.310;8.646;2023-04-04T13:36:34;101298.25;;;17.02;28.65
19736;BME280;32064;49.310;8.646;2023-04-04T13:39:00;101307.28;;;16.68;27.34
19736;BME280;32064;49.310;8.646;2023-04-04T13:41:25;101301.88;;;16.47;28.37
19736;BME280;32064;49.310;8.646;2023-04-04T13:43:51;101289.66;;;16.55;27.79
19736;BME280;32064;49.310;8.646;2023-04-04T13:46:16;101302.50;;;16.50;27.87
19736;BME280;32064;49.310;8.646;2023-04-04T13:48:41;101302.94;;;16.78;28.53
19736;BME280;32064;49.310;8.646;2023-04-04T13:51:07;101289.31;;;16.49;28.75
19736;BME280;32064;49.310;8.646;2023-04-04T13:53:33;101287.38;;;16.62;28.51
19736;BME280;32064;49.310;8.646;2023-04-04T13:55:58;101283.78;;;16.41;27.60
19736;BME280;32064;49.310;8.646;2023-04-04T13:58:23;101288.34;;;16.50;27.55
19736;BME280;32064;49.310;8.646;2023-04-04T14:00:49;101282.31;;;16.59;28.72
19736;BME280;32064;49.310;8.646;2023-04-04T14:03:15;101289.09;;;16.41;28.61
19736;BME280;32064;49.310;8.646;2023-04-04T14:05:41;101277.03;;;16.36;28.31
19736;BME280;32064;49.310;8.646;2023-04-04T14:08:07;101271.13;;;15.88;28.10
19736;BME280;32064;49.310;8.646;2023-04-04T14:10:33;101268.25;;;15.80;28.85
19736;BME280;32064;49.310;8.646;2023-04-04T14:12:58;101267.97;;;15.60;28.78